»·PEaware :: DAL495 KBIL-KSNA

DAL495 :: KBIL-KSNA

FLIGHT INFORMATION

Flight Status: Arrived
Operator:
Delta Air Lines
More flights by this operator :: More flights under this callsign
Pilot: Kevin M. (7)
Aircraft: BOEING 737-800
(B738)
More flights by this aircraft type
Origin: KBIL Billings Logan Intl
United States
Destination: KSNA John Wayne-Orange Co
United States
More flights between these airports :: More routes between these airports
Route: +BIL5 NELKS SYMPL DNW OGD MLF LAS HEC KAYOH7
File this flight plan on PilotEdge
Remarks:
Altitude:
(Current/Filed)
36,000ft
Speed:
(Current/Filed)
468kts
Departed: 14-Jan-20 09:36 AM
Arrived: 14-Jan-20 12:02 PM
Distance/Time
Traveled:
844nm/2:25
Distance/Time
To Go:
Arrived

Flight Plot

Page will automatically refresh every two minutes.

Flight plan parsing failed; only flown route is shown


Map Options




Map Legend


Flown Route
Filed Route
Departure Airport
Arrival Airport
Navaid (VOR, NDB)
Fix

Horizontal Profiles

Position Reports

Time Latitude Longitude Heading Altitude Ground
Speed
14-Jan-20 09:06 45.804176 -108.538454 140 3541ft 0kts
14-Jan-20 09:07 45.804176 -108.538454 140 3541ft 0kts
14-Jan-20 09:08 45.804176 -108.538454 140 3541ft 0kts
14-Jan-20 09:09 45.804176 -108.538454 140 3541ft 0kts
14-Jan-20 09:10 45.804176 -108.538454 140 3541ft 0kts
14-Jan-20 09:11 45.804176 -108.538454 140 3541ft 0kts
14-Jan-20 09:12 45.804176 -108.538454 140 3541ft 0kts
14-Jan-20 09:13 45.804176 -108.538454 140 3541ft 0kts
14-Jan-20 09:14 45.804176 -108.538454 140 3541ft 0kts
14-Jan-20 09:15 45.804176 -108.538454 140 3541ft 0kts
14-Jan-20 09:16 45.804176 -108.538454 140 3541ft 0kts
14-Jan-20 09:17 45.804176 -108.538454 140 3541ft 0kts
14-Jan-20 09:18 45.804176 -108.538454 140 3542ft 0kts
14-Jan-20 09:19 45.804283 -108.538578 140 3542ft 2kts
14-Jan-20 09:20 45.804808 -108.538926 169 3546ft 1kts
14-Jan-20 09:21 45.804755 -108.539241 345 3547ft 0kts
14-Jan-20 09:22 45.804675 -108.539198 340 3546ft 0kts
14-Jan-20 09:23 45.804675 -108.539198 340 3546ft 0kts
14-Jan-20 09:24 45.804865 -108.539432 303 3548ft 3kts
14-Jan-20 09:25 45.805883 -108.542064 269 3558ft 6kts
14-Jan-20 09:26 45.805066 -108.543923 178 3562ft 0kts
14-Jan-20 09:27 45.805066 -108.543923 178 3562ft 0kts
14-Jan-20 09:28 45.805066 -108.543923 178 3562ft 0kts
14-Jan-20 09:29 45.805066 -108.543923 178 3562ft 0kts
14-Jan-20 09:30 45.804649 -108.542651 89 3557ft 8kts
14-Jan-20 09:31 45.805981 -108.538395 15 3543ft 7kts
14-Jan-20 09:32 45.807108 -108.541577 291 3555ft 20kts
14-Jan-20 09:33 45.810393 -108.552833 291 3587ft 31kts
14-Jan-20 09:34 45.811747 -108.555166 19 3591ft 6kts
14-Jan-20 09:35 45.808824 -108.540899 110 3546ft 132kts
14-Jan-20 09:36 45.791746 -108.483952 111 5177ft 166kts
14-Jan-20 09:37 45.757792 -108.439706 196 6172ft 228kts
14-Jan-20 09:38 45.711053 -108.513536 230 8209ft 267kts
14-Jan-20 09:39 45.665929 -108.600017 230 10464ft 285kts
14-Jan-20 09:40 45.614588 -108.698045 232 12166ft 319kts
14-Jan-20 09:41 45.560721 -108.800684 232 14582ft 327kts
14-Jan-20 09:42 45.505327 -108.905882 232 16943ft 335kts
14-Jan-20 09:43 45.448623 -109.013224 232 19122ft 344kts
14-Jan-20 09:44 45.390301 -109.123277 232 21123ft 353kts
14-Jan-20 09:45 45.327677 -109.232584 223 22970ft 361kts
14-Jan-20 09:46 45.251735 -109.327872 223 24627ft 370kts
14-Jan-20 09:47 45.173790 -109.426464 222 26157ft 379kts
14-Jan-20 09:48 45.080238 -109.500779 209 27580ft 391kts
14-Jan-20 09:49 44.982057 -109.567617 211 29094ft 393kts
14-Jan-20 09:50 44.882895 -109.635040 212 30344ft 398kts
14-Jan-20 09:51 44.782163 -109.703141 212 31488ft 407kts
14-Jan-20 09:52 44.680291 -109.771820 212 32973ft 404kts
14-Jan-20 09:53 44.579194 -109.839720 213 34362ft 401kts
14-Jan-20 09:54 44.478743 -109.906941 213 35575ft 399kts
14-Jan-20 09:55 44.380362 -109.972482 213 35730ft 383kts
14-Jan-20 09:56 44.283528 -110.036871 213 35722ft 388kts
14-Jan-20 09:57 44.186812 -110.100855 213 35722ft 385kts
14-Jan-20 09:58 44.089772 -110.164853 213 35720ft 389kts
14-Jan-20 09:59 43.992101 -110.228977 213 35725ft 386kts
14-Jan-20 10:00 43.895184 -110.292443 213 35728ft 388kts
14-Jan-20 10:01 43.797729 -110.356944 215 35736ft 387kts
14-Jan-20 10:02 43.702833 -110.424355 215 35737ft 383kts
14-Jan-20 10:03 43.607648 -110.491538 215 35735ft 384kts
14-Jan-20 10:04 43.512168 -110.558658 215 35733ft 385kts
14-Jan-20 10:05 43.416879 -110.625431 215 35734ft 385kts
14-Jan-20 10:06 43.321139 -110.692163 214 35748ft 386kts
14-Jan-20 10:07 43.224104 -110.754455 209 35747ft 391kts
14-Jan-20 10:08 43.121798 -110.805780 208 35767ft 392kts
14-Jan-20 10:09 43.019056 -110.857031 209 35796ft 392kts
14-Jan-20 10:10 42.921141 -110.905263 211 35790ft 344kts
14-Jan-20 10:11 42.832459 -110.949146 211 35805ft 346kts
14-Jan-20 10:12 42.740777 -110.994613 209 35857ft 355kts
14-Jan-20 10:13 42.648514 -111.040103 209 35851ft 351kts
14-Jan-20 10:14 42.556192 -111.085539 209 35851ft 355kts
14-Jan-20 10:15 42.463319 -111.131076 209 35851ft 354kts
14-Jan-20 10:16 42.370727 -111.176344 209 35852ft 355kts
14-Jan-20 10:17 42.277824 -111.221617 209 35850ft 355kts
14-Jan-20 10:18 42.184523 -111.266992 209 35858ft 357kts
14-Jan-20 10:19 42.091768 -111.311937 209 35899ft 353kts
14-Jan-20 10:20 41.998939 -111.356872 209 35929ft 357kts
14-Jan-20 10:21 41.905968 -111.401712 209 35932ft 356kts
14-Jan-20 10:22 41.815088 -111.445417 209 35938ft 355kts
14-Jan-20 10:23 41.722355 -111.489890 209 35930ft 356kts
14-Jan-20 10:24 41.629132 -111.534471 209 35911ft 355kts
14-Jan-20 10:25 41.536203 -111.578773 209 35925ft 355kts
14-Jan-20 10:26 41.443489 -111.622854 209 35936ft 355kts
14-Jan-20 10:27 41.350149 -111.667036 208 35924ft 355kts
14-Jan-20 10:28 41.257322 -111.710621 208 35895ft 355kts
14-Jan-20 10:29 41.164072 -111.754285 209 35890ft 355kts
14-Jan-20 10:30 41.071517 -111.797481 209 35890ft 350kts
14-Jan-20 10:31 40.981495 -111.839200 211 35889ft 337kts
14-Jan-20 10:32 40.895631 -111.879003 212 35892ft 330kts
14-Jan-20 10:33 40.809107 -111.919236 212 35904ft 332kts
14-Jan-20 10:34 40.722324 -111.959287 212 35901ft 331kts
14-Jan-20 10:35 40.635202 -111.999548 211 35897ft 330kts
14-Jan-20 10:36 40.548301 -112.039509 211 35918ft 331kts
14-Jan-20 10:37 40.461282 -112.079498 212 35922ft 334kts
14-Jan-20 10:38 40.374694 -112.119062 212 35942ft 325kts
14-Jan-20 10:39 40.287490 -112.159118 211 35951ft 344kts
14-Jan-20 10:40 40.193250 -112.202428 210 35941ft 371kts
14-Jan-20 10:41 40.093133 -112.248114 210 35930ft 387kts
14-Jan-20 10:42 39.991726 -112.294076 211 35918ft 383kts
14-Jan-20 10:44 39.891216 -112.339457 210 35957ft 380kts
14-Jan-20 10:45 39.790398 -112.384929 210 35984ft 384kts
14-Jan-20 10:46 39.689545 -112.430269 210 35983ft 386kts
14-Jan-20 10:47 39.588992 -112.475281 211 35980ft 383kts
14-Jan-20 10:48 39.488218 -112.520338 210 35981ft 386kts
14-Jan-20 10:49 39.387252 -112.565203 211 35976ft 382kts
14-Jan-20 10:50 39.287276 -112.609585 210 35978ft 382kts
14-Jan-20 10:51 39.185730 -112.654609 210 35984ft 388kts
14-Jan-20 10:52 39.083935 -112.699175 209 35994ft 385kts
14-Jan-20 10:53 38.982426 -112.743539 209 36004ft 391kts
14-Jan-20 10:54 38.877760 -112.789250 208 36224ft 405kts
14-Jan-20 10:55 38.771036 -112.835629 207 37296ft 404kts
14-Jan-20 10:56 38.664889 -112.881613 207 38036ft 404kts
14-Jan-20 10:57 38.558504 -112.927638 207 38046ft 401kts
14-Jan-20 10:58 38.452961 -112.973231 207 38050ft 403kts
14-Jan-20 10:59 38.350335 -113.026577 219 38046ft 387kts
14-Jan-20 11:00 38.264524 -113.106833 223 38043ft 384kts
14-Jan-20 11:01 38.179310 -113.189990 223 38033ft 386kts
14-Jan-20 11:02 38.094018 -113.272842 223 38014ft 383kts
14-Jan-20 11:02 38.023667 -113.341036 223 38008ft 383kts
14-Jan-20 11:04 37.924751 -113.436591 223 38002ft 384kts
14-Jan-20 11:05 37.840186 -113.518037 223 38015ft 383kts
14-Jan-20 11:05 37.769299 -113.586131 223 38009ft 383kts
14-Jan-20 11:07 37.670842 -113.680330 222 38068ft 383kts
14-Jan-20 11:07 37.599607 -113.748291 222 38138ft 385kts
14-Jan-20 11:08 37.514133 -113.829694 222 38158ft 384kts
14-Jan-20 11:10 37.414201 -113.924567 222 38157ft 385kts
14-Jan-20 11:10 37.342769 -113.992168 222 38152ft 384kts
14-Jan-20 11:11 37.257685 -114.072482 222 38153ft 383kts
14-Jan-20 11:12 37.171642 -114.153506 222 38151ft 386kts
14-Jan-20 11:13 37.085914 -114.233950 222 38145ft 386kts
14-Jan-20 11:15 36.983761 -114.329538 222 38137ft 399kts
14-Jan-20 11:15 36.908768 -114.399499 222 38122ft 404kts
14-Jan-20 11:16 36.818892 -114.483084 222 38114ft 402kts
14-Jan-20 11:17 36.728917 -114.566534 222 38111ft 402kts
14-Jan-20 11:18 36.639166 -114.649522 222 38109ft 402kts
14-Jan-20 11:19 36.548714 -114.732789 222 38123ft 403kts
14-Jan-20 11:20 36.458758 -114.815472 221 38121ft 402kts
14-Jan-20 11:21 36.368724 -114.897988 222 38120ft 403kts
14-Jan-20 11:22 36.278217 -114.980692 222 38117ft 403kts
14-Jan-20 11:23 36.187277 -115.063572 221 38116ft 408kts
14-Jan-20 11:24 36.094968 -115.147443 221 38116ft 413kts
14-Jan-20 11:25 36.005639 -115.236512 224 38121ft 414kts
14-Jan-20 11:26 35.917196 -115.328116 224 38121ft 413kts
14-Jan-20 11:27 35.828849 -115.419241 224 38123ft 413kts
14-Jan-20 11:28 35.740765 -115.509834 224 38122ft 414kts
14-Jan-20 11:29 35.652407 -115.600422 224 38120ft 413kts
14-Jan-20 11:30 35.564282 -115.690453 224 38132ft 414kts
14-Jan-20 11:31 35.475453 -115.780966 224 38131ft 414kts
14-Jan-20 11:32 35.388966 -115.868755 224 38125ft 383kts
14-Jan-20 11:33 35.305821 -115.953127 224 38129ft 394kts
14-Jan-20 11:34 35.220912 -116.038884 224 36593ft 392kts
14-Jan-20 11:35 35.138142 -116.122281 224 34186ft 382kts
14-Jan-20 11:36 35.053663 -116.207252 224 31497ft 402kts
14-Jan-20 11:37 34.967909 -116.293125 223 28970ft 389kts
14-Jan-20 11:38 34.886375 -116.374589 223 26692ft 370kts
14-Jan-20 11:39 34.809956 -116.452031 222 24726ft 376kts
14-Jan-20 11:40 34.730265 -116.545236 228 24746ft 425kts
14-Jan-20 11:41 34.645519 -116.649493 228 24108ft 434kts
14-Jan-20 11:42 34.562477 -116.751156 227 21018ft 425kts
14-Jan-20 11:43 34.480707 -116.851109 227 17237ft 410kts
14-Jan-20 11:44 34.402087 -116.946930 227 13642ft 393kts
14-Jan-20 11:45 34.326920 -117.038332 228 12534ft 385kts
14-Jan-20 11:46 34.237648 -117.110894 203 12030ft 393kts
14-Jan-20 11:47 34.130748 -117.133102 191 10790ft 393kts
14-Jan-20 11:48 34.020405 -117.149385 190 10190ft 391kts
14-Jan-20 11:49 33.911099 -117.165548 190 10127ft 394kts
14-Jan-20 11:50 33.825004 -117.211084 228 10099ft 296kts
14-Jan-20 11:51 33.784919 -117.288728 259 9180ft 262kts
14-Jan-20 11:52 33.778900 -117.376733 275 8173ft 269kts
14-Jan-20 11:53 33.779323 -117.464562 275 7999ft 238kts
14-Jan-20 11:54 33.783771 -117.541787 282 8011ft 230kts
14-Jan-20 11:55 33.793684 -117.617499 282 8013ft 225kts
14-Jan-20 11:56 33.803930 -117.692550 281 7170ft 223kts
14-Jan-20 11:57 33.807913 -117.762316 250 5880ft 213kts
14-Jan-20 11:58 33.766667 -117.810442 214 2861ft 200kts
14-Jan-20 11:59 33.726133 -117.836967 211 1512ft 147kts
14-Jan-20 12:00 33.690879 -117.859249 208 315ft 141kts
14-Jan-20 12:01 33.669427 -117.871933 143 64ft 20kts
14-Jan-20 12:03 33.672723 -117.867737 33 64ft 20kts
14-Jan-20 12:04 33.675470 -117.865138 109 64ft 5kts
14-Jan-20 12:05 33.675374 -117.864895 117 64ft 0kts

Navigation Log

Ident Type
Flight plan parsing failed, navigation log unavailable